Suivre ce blog
Administration Créer mon blog
20 mai 2015 3 20 /05 /mai /2015 18:49
Belle vue-DINANT

Partager cet article

24 avril 2015 5 24 /04 /avril /2015 17:14
Dinant-1900

Quelques vues

Dinant-1900
Dinant-1900
Dinant-1900
Dinant-1900
Dinant-1900
Dinant-1900
Dinant-1900
Dinant-1900
Dinant-1900
Dinant-1900
Dinant-1900
Dinant-1900
Dinant-1900
Dinant-1900
Dinant-1900
Dinant-1900
Dinant-1900

Partager cet article

22 avril 2015 3 22 /04 /avril /2015 19:55
quai
quai

Quai de la gare en 1920

Partager cet article

14 avril 2015 2 14 /04 /avril /2015 19:09

02dinant 060.01

06

V.02

Partager cet article

4 avril 2015 6 04 /04 /avril /2015 08:35

CE vendredi 3 avril 2015

 

 

CORRIDA DE DINANT
ven 03-avr 2015 528 classés 10,00 km
POS DOS SEXE NOM CLUB TEMPS REEL VIT MOY CAT PL. LAP1 LAP2 LAP3 LAP4 LAP5
1 229 Brandenbourg Michael RFCL ( NIKE )  00:30:44 00:30:44 19,523 03:04 SH 1 03:10 06:52 06:54 06:54 06:53
2 742 Durviaux Raphaël WACO 00:30:51 00:30:51 19,449 03:05 SH 2 03:10 06:52 06:54 06:54 07:00
3 1151 Poncelet Valentin CABW 00:30:59 00:30:59 19,365 03:06 SH 3 03:10 06:59 07:02 06:58 06:50
4 1390 Robin Arnaud DAMP / DRP 00:32:08 00:32:08 18,672 03:13 SH 4 03:13 07:02 07:20 07:22 07:11
5 342 Cellier Alexandre TRANSITION SPORT 00:32:28 00:32:29 18,480 03:15 SH 5 03:14 07:01 07:20 07:29 07:24
6 2038 Hemelaers Laurent JOGGING + 00:32:50 00:32:49 18,274 03:17 SH 6 03:20 07:22 07:28 07:27 07:14
7 1146 Piron Mathieu SPORTIPS 00:32:52 00:32:52 18,256 03:17 SH 7 03:18 07:23 07:28 07:29 07:14
8 1124 Noel Adrien JOGGING + 00:32:55 00:32:55 18,228 03:18 SH 8 03:13 07:11 07:41 07:37 07:14
9 1400 Doumont Damien DAMP / DRP 00:32:58 00:32:58 18,200 03:18 SH 9 03:14 07:18 07:33 07:34 07:20
10 2055 Howet Florian ARCH 00:33:02 00:33:00 18,163 03:18 SH 10 03:16 07:25 07:28 07:29 07:24
11 1416 Legros Olivier WACO 00:33:04 00:33:04 18,145 03:18 V1 1 03:18 07:23 07:28 07:29 07:26
12 50 Benoit Mathieu NAC/TRAKKS 00:33:21 00:33:21 17,991 03:20 SH 11 03:27 07:28 07:35 07:33 07:19
13 1168 Salsby Alfie Jules CABW 00:33:26 00:33:26 17,946 03:21 EH 1 03:20 07:33 07:37 07:32 07:24
14 409 Coniglio Lorenzo UAC 00:33:32 00:33:31 17,893 03:21 V1 2 03:18 07:23 07:36 07:36 07:39
15 1311 Vansteenland Brice POSITIVE ATTITUDE 00:33:56 00:33:55 17,682 03:24 SH 12 03:19 07:28 07:44 07:48 07:38
16 1127 Oubouskour Brahim CRAC 00:34:22 00:34:22 17,459 03:26 V1 3 03:25 07:36 07:49 07:55 07:37
17 1379 Hoppe Nicolas TRAKKS 00:34:22 00:34:22 17,459 03:26 SH 13 03:19 07:34 07:50 07:51 07:48
18 209 Bourgeois Sébastien ESM/ACTE 00:34:37 00:34:37 17,333 03:28 SH 14 03:21 07:32 07:50 07:58 07:56
19 645 Dewailly Victor COACH RUNNING 00:34:39 00:34:35 17,316 03:28 SH 15 03:33 07:45 07:47 07:50 07:43
20 1377 Chaboteaux Jerome CAP BEAURAING 00:34:43 00:34:42 17,283 03:28 SH 16 03:27 07:35 07:49 07:54 07:58
21 57 Marmignon Thibaut ARCH 00:34:53 00:34:53 17,200 03:29 SH 17 03:20 07:31 07:49 08:01 08:12
22 68 Bernard Franck SMAC 00:34:53 00:34:53 17,200 03:29 SH 18 03:34 07:39 07:53 07:59 07:48
23 599 Demars Maxime JCCS 00:34:57 00:34:55 17,167 03:30 SH 19 03:23 07:40 07:53 08:05 07:56
24 406 Colson Stephane JOGGING + 00:35:02 00:35:01 17,127 03:30 V2 1 03:27 07:45 07:54 07:58 07:58
25 284 Burtomboy Gregory BBS 00:35:05 00:35:05 17,102 03:31 SH 20 03:27 07:45 08:00 08:03 07:50
26 746 El Yattouti  Younes CSF 00:35:16 00:35:15 17,013 03:32 SH 21 03:23 07:37 07:54 08:25 07:58
27 2087


























Partager cet article

23 mars 2015 1 23 /03 /mars /2015 09:29

 

 

Semi-Marathon la Sambrienne - 21.095km - Roselies

 

SEMI-MARATHON LA SAMBRIENNE
dim 22-mars 2015 434 classés 21,10 km
POS DOS SEXE NOM CLUB TEMPS VIT MOY CAT PL.
1 1191 Lemmens Davy 01:08:20 18,522 03:14 SE 1
2 1290 Fays Guy RFCL 01:09:26 18,229 03:17 V1 1
3 1143 Poncelet Valentin 01:09:56 18,099 03:19 SE 2
4 1153 Robin Arnaud 01:10:13 18,026 03:20 SE 3
5 1184 Lauwers Aurélien 01:13:51 17,139 03:30 SE 4
6 1069 Coniglio Lorenzo 01:14:36 16,966 03:32 V1 2
7 1004 Blanchart Samuel 01:15:47 16,702 03:36 V1 3
8 493 Mourmaux Laurent ESM 01:16:22 16,574 03:37 V1 4
9 1061 Capelle Christian 01:16:30 16,545 03:38 V1 5
10 1171 Hoppe Nicolas 01:16:41 16,506 03:38 SE 5
11 1291 Mleczko Olivier JOG+ 01:16:50 16,473 03:39 V1 6
12 1052 Blasson Laurent 01:17:34 16,318 03:41 SE 6
13 1001 Berton Guy 01:18:27 16,134 03:43 V1 7
14 1087 Debaste Frédéric 01:18:48 16,062 03:44 SE 7
15 97 Geens Christophe 01:19:16 15,968 03:45 SE 8
16 1164 Scieur Francis 01:19:21 15,951 03:46 V2 1
17 1287 Renard Pierre CEPAL 01:19:21 15,951 03:46 V1 8
18 1381 Coppieters Bruno 01:20:24 15,743 03:49 V3 1
19 1249 Corbusier Philippe TRANSITION SPORT 01:20:25 15,739 03:49 V1 9
20 1399 Goossesn Julien ATCC 01:21:07 15,603 03:51 SE 9
21 156 Marlé Laurent 01:21:29 15,533 03:52 V1 10
22 1077 Dausimont Marc 01:21:33 15,521 03:52 V1 11
23 1104 Dufourny Dominique 01:21:43 15,489 03:52 V2 2
24 1255 Verstrepen Frederic JOGPLUS 01:21:48 15,473 03:53 V1 12
25 144 Lindekens André FLEU 01:21:55 15,451 03:53 V1 13
26 1094 Demadre Etienne 01:21:56 15,448 03:53 V1 14
27 1127 Michel Régis 01:22:05 15,420 03:53 SE 10
28 1112 Francois Christophe 01:22:23 15,364 03:54 SE 11
29 204 Riguelle François FLEU / JÉR-UDY'S 01:22:33 15,333 03:55 SE 12
30 1081 De Decker Mathieu 01:22:50 15,280 03:56 SE 13
31 1261 Choteau Hughes LESDAIN D'LA MER 01:23:05 15,234 03:56 SE 14
32 1196 Libert Thierry 01:23:11 15,216 03:57 V1 15
33 336 Dos Santos Neiva Sergio ARCH 01:23:47 15,107 03:58 V1 16
34 380 Hardenne André FLEU 01:24:06 15,050 03:59 V2 3
35 287 Schalkwijk Benoit ARCH 01:24:09 15,041 03:59 V2 4
36 1073 Cornil Thierry 01:24:28 14,985 04:00 V1 17
37 146 Lorent Xavier BOUFFIOLS 01:24:32 14,973 04:00 SE 15
38 1303 Buelens Matthieu 01:24:34 14,967 04:01 SE 16
39 1126 Paulin Baland 01:24:36 14,961 04:01 SE 17
40 1259 Biscaglia Frederic ESM 01:24:44 14,937 04:01 SE 18
41 1097 Dercq Frédéric 01:24:48 14,926 04:01 V1 18
42 1193 Leonard Claude 01:24:50 14,920 04:01 V2 5
43 1075 Crespinet Alain 01:24:51 14,917 04:01 V2 6
44 130 Lamour Jean A.R.C.H.-/ T.A.C 01:25:12 14,856 04:02 V1 19
45 1275 Buckinx Etienne RFCL 01:25:45 14,760 04:04 V2 7
46 214 Sartori Sergio FLEU 01:25:54 14,735 04:04 V2 8
47 1044 Andre Olivier 01:26:01 14,715 04:05 SE 19
48 1240 Vega Severino 01:26:08 14,695 04:05 V1 20
49 1085 De Scheemaekere Paul 01:26:16 14,672 04:05 V1 21
50 1138 Parent Pascal 01:26:22 14,655 04:06 V1 22
51 205 Rivez Pierre ACTE 01:26:31 14,630 04:06 V2

9

Partager cet article

19 février 2015 4 19 /02 /février /2015 21:05

trappiste 001 08.02.2004

 

trappiste 003 28.09.2004

 

trappiste 006

 

trappiste 007 18.10.2016

 

trappiste 010 chimay -1988.

 

trappiste 009

 

 

Partager cet article

8 février 2015 7 08 /02 /février /2015 11:11

Usine hydraulique -Alferd DECOUX-GéRARD

                          de WARNANT

 

DSCN9875 

 

vu dans une bourse aux vieux papiers.

Partager cet article

7 février 2015 6 07 /02 /février /2015 18:07

V.02 06dinant 060.01 

Partager cet article

26 janvier 2015 1 26 /01 /janvier /2015 11:32

25 janvier 2015.

 

 

 

MASTERS HOMMES - MASTERS HEREN  6000m
place number crosscup number name born country cat. club
1 5631 HEEMSKERK STEVEN 78 BEL M35 ATLA 25 21:13
2 5111 KLUSKENS JOHN 70 BEL M40 LAT 25 22:05
3 3632 DETHIER GAEL 77 BEL M35 SPA 20 22:18
4 6602 VANDEWEGHE LIEVEN 79 BEL M35 KKS 17 22:30
5 6033 DEWAELE KAREL 75 BEL M35 AZW 15 22:33
6 6176 VAN PUYVELDE EDDY 67 BEL M45 AVLO 25 22:39
7 5315 VAN DAELE PATRICK 63 BEL M50 ROBA 25 22:44
8 4295 BOUZIDI DJAMEL 79 BEL M35 SER 13 22:56
9 6425 VAN HOOSTE TOM 72 BEL M40 AVLO 20 22:56
10 3908 NOEL DOMINIQUE 68 BEL M45 WACO 20 23:18
11 3979 PASQUE FABRICE 76 BEL M35 CABW 11 23:23
12 4364 WIRTGEN VINCENT 76 BEL M35 RFCL 9 23:30
13 3619 FAVEAUX THIERRY 63 BEL M50 ARCH 20 23:32
14 6259 STORMS ALEX 63 BEL M50 ROBA 17 23:34
15 5328 SMETS FILIP 71 BEL M40 ROBA 17 23:41
16 3637 THEUNIS GERT 75 BEL M35 FCHA 8 23:45
17 3635 HEINS RAPHAEL 77 BEL M35 SER 7 23:53
18 5635 DRION DAVID 78 BEL M35 ATLA 6 24:07
19 3959 BLANCHART SAMUEL 72 BEL M40 DS 15 24:08
20 3730 DELCHAMBRE FREDERIC 73 BEL M40 HUY 13 24:14
21 3628 LAMOUR JEAN 67 BEL M45 ARCH 17 24:41
22 5431 VERELST JAN 58 BEL M55 HULS 25 24:55
23 4108 BOTTE LUDOVIC 77 BEL M35 WACO 5 25:07
24 5470 DE PAEMELAERE NICK 63 BEL M50 AVR 15 25:34
25 3732 GASPART STEPHANE 70 BEL M40 HUY 11 25:39
26 3946 CHARLIER ALAIN 70 BEL M40 SMAC 9 25:43
27 3702 MEDICI PHILIPPE 68 BEL M45 DS 15 25:45
28 3588 CHOUIBA MOHAMED 68 BEL M45 HF 13 25:49
29 4115 DAVELINO MICHAEL 71 BEL M40 SER 8 25:54
30 4233 ROBERT CEDRIC 79 BEL M35 DS 4 25:55
31 3862 BERTON GUY 70 BEL M40 FCHA 7 26:16
32 3634 VEGA LORENZO SEVERINO* 66 M45 SER 26:23
33 3525 FRAHTIA DANY 66 BEL M45 ACCO 9 26:27
34 5083 LEYSEELE KURT 75 BEL M35 BEHO 3 26:39
35 5082 LEYSEELE ERIK 48 BEL M65 BEHO 25 26:39
36 3643 DOLHEN PIERRE 73 BEL M40 FCHA 6 26:45
37 5298 SCHEPERS T21 ANDRÉ 74 BEL M40 LEBB 5 26:48
38 5291 VAN DAELE LUC 53 BEL M60 ROBA 25 27:11
39 3907 MELIN CHRISTOPHE 75 BEL M35 HUY 2 27:23
40 6274 TYTGAT REDGY 56 BEL M55 ROBA 20 27:30
41 3590 REIP MICHEL 65 BEL M45 HF 8 27:44
42 6153 NEVEN RUDI 63 BEL M50 ACA 13 27:51
43 4088 RICHARD ANDRE 54 BEL M60 ARCH 20 27:55
44 3791 MARCHAL ANDRE 56 BEL M55 HF 17 28:01
45 3920 LONHIENNE FREDERIC 64 BEL M50 SER 11 28:21
46 3734 LEMOS CRUZ JOSE 57 BEL M55 HUY 15 28:22
47 5416 GOVAERTS KRIS 52 BEL M60 ACA 17 28:57
48 3517 FRANCOIS MARC 54 BEL M60 USBW 15 28:59
49 184 JABAS BERNARD 64 BEL M NA 29:08
50 5146 HUYSMANS MARC 56 BEL M55 ROBA 13 29:11
51 3627 BRANDENBOURG JEAN JACQU 56 BEL M55 ARCH 11 29:23
52 4723 VERSTEVEN RENE 45 BEL M65 BONH 20 29:26
53 4082 LEONARD ROLAND 64 BEL M50 FCHA 9 29:37
54 6932 VAN BEERSEL PETER 71 BEL M40 HULS 4 29:41

Partager cet article

Published by J - dans cross
commenter cet article

Présentation

  • : zoumelite
  • : le plaisir de la course a pied
  • Contact

Recherche